Aviation Digital Data Service (ADDS)

Output produced by METARs form (0902 UTC 23 July 2019)
found at http://www.aviationweather.gov/metar/data/
 
Forecast for: SBCT (CURITIBA/AFONSO , BR)
Text: TAF SBCT 230300Z 2306/2406 03006KT CAVOK TX23/2315Z TN11/2406Z
Forecast period: 0600 to 1200 UTC 23 July 2019
Forecast type: FROM: standard forecast or significant change
Winds: from the NNE (30 degrees) at 7 MPH (6 knots; 3.1 m/s)
Visibility: 6 or more miles 10+ km)
Ceiling: unknown
Clouds: missing
Weather: no significant weather forecast for this period
Text: PROB30 2306/2310 5000 BR NSC
Forecast period: 0600 to 1000 UTC 23 July 2019
Forecast type: PROBABLE: 30 percent likelihood of the following during this time
Visibility: 3 miles (5 km)
Ceiling: unknown
Clouds: missing
Weather: BR  (mist)
Text: BECMG 2312/2314 34008KT RMK PFF
Forecast period: 1200 UTC 23 July 2019 to 0600 UTC 24 July 2019
Forecast type: BECOMING: Conditions expected to become as follows by 1400 UTC 23 July 2019
Winds: from the NNW (340 degrees) at 9 MPH (8 knots; 4.1 m/s)
Visibility: 6 or more miles 10+ km)
Ceiling: unknown
Clouds: missing
Weather: no significant weather forecast for this period